sensor_id;sensor_type;location;lat;lon;timestamp;P1;durP1;ratioP1;P2;durP2;ratioP2
18596;SDS011;9428;50.950;6.912;2023-07-09T00:02:04;8.07;;;5.63;;
18596;SDS011;9428;50.950;6.912;2023-07-09T00:04:51;12.52;;;7.28;;
18596;SDS011;9428;50.950;6.912;2023-07-09T00:07:40;13.63;;;7.38;;
18596;SDS011;9428;50.950;6.912;2023-07-09T00:10:30;10.18;;;6.25;;
18596;SDS011;9428;50.950;6.912;2023-07-09T00:13:19;12.85;;;6.65;;
18596;SDS011;9428;50.950;6.912;2023-07-09T00:16:10;14.43;;;7.00;;
18596;SDS011;9428;50.950;6.912;2023-07-09T00:19:00;9.30;;;6.30;;
18596;SDS011;9428;50.950;6.912;2023-07-09T00:21:48;11.27;;;6.25;;
18596;SDS011;9428;50.950;6.912;2023-07-09T00:24:39;9.63;;;6.90;;
18596;SDS011;9428;50.950;6.912;2023-07-09T00:27:29;10.00;;;6.15;;
18596;SDS011;9428;50.950;6.912;2023-07-09T00:30:18;11.75;;;6.40;;
18596;SDS011;9428;50.950;6.912;2023-07-09T00:33:09;12.10;;;6.93;;
18596;SDS011;9428;50.950;6.912;2023-07-09T00:35:59;15.15;;;7.03;;
18596;SDS011;9428;50.950;6.912;2023-07-09T00:38:46;11.73;;;6.60;;
18596;SDS011;9428;50.950;6.912;2023-07-09T00:41:36;12.63;;;6.78;;
18596;SDS011;9428;50.950;6.912;2023-07-09T00:44:26;11.35;;;7.35;;
18596;SDS011;9428;50.950;6.912;2023-07-09T00:47:21;9.32;;;6.00;;
18596;SDS011;9428;50.950;6.912;2023-07-09T00:50:11;9.20;;;6.43;;
18596;SDS011;9428;50.950;6.912;2023-07-09T00:53:11;12.63;;;6.68;;
18596;SDS011;9428;50.950;6.912;2023-07-09T00:56:04;8.35;;;6.28;;
18596;SDS011;9428;50.950;6.912;2023-07-09T00:58:56;7.97;;;5.55;;
18596;SDS011;9428;50.950;6.912;2023-07-09T01:01:46;10.82;;;5.90;;
18596;SDS011;9428;50.950;6.912;2023-07-09T01:04:35;10.13;;;6.45;;
18596;SDS011;9428;50.950;6.912;2023-07-09T01:07:24;10.13;;;6.50;;
18596;SDS011;9428;50.950;6.912;2023-07-09T01:10:12;9.70;;;5.85;;
18596;SDS011;9428;50.950;6.912;2023-07-09T01:12:59;10.18;;;6.38;;
18596;SDS011;9428;50.950;6.912;2023-07-09T01:15:48;8.82;;;6.10;;
18596;SDS011;9428;50.950;6.912;2023-07-09T01:18:35;11.88;;;6.20;;
18596;SDS011;9428;50.950;6.912;2023-07-09T01:21:26;11.00;;;6.15;;
18596;SDS011;9428;50.950;6.912;2023-07-09T01:24:14;9.30;;;6.03;;
18596;SDS011;9428;50.950;6.912;2023-07-09T01:27:24;8.75;;;6.00;;
18596;SDS011;9428;50.950;6.912;2023-07-09T01:30:15;9.02;;;6.65;;
18596;SDS011;9428;50.950;6.912;2023-07-09T01:33:07;9.57;;;5.95;;
18596;SDS011;9428;50.950;6.912;2023-07-09T01:35:55;9.77;;;6.40;;
18596;SDS011;9428;50.950;6.912;2023-07-09T01:38:47;12.18;;;6.20;;
18596;SDS011;9428;50.950;6.912;2023-07-09T01:41:34;14.70;;;7.53;;
18596;SDS011;9428;50.950;6.912;2023-07-09T01:44:22;10.10;;;7.07;;
18596;SDS011;9428;50.950;6.912;2023-07-09T01:47:10;10.75;;;6.55;;
18596;SDS011;9428;50.950;6.912;2023-07-09T01:49:57;10.63;;;6.75;;
18596;SDS011;9428;50.950;6.912;2023-07-09T01:52:45;9.55;;;5.68;;
18596;SDS011;9428;50.950;6.912;2023-07-09T01:55:36;10.85;;;6.00;;
18596;SDS011;9428;50.950;6.912;2023-07-09T01:58:23;12.90;;;6.43;;
18596;SDS011;9428;50.950;6.912;2023-07-09T02:01:11;11.60;;;5.50;;
18596;SDS011;9428;50.950;6.912;2023-07-09T02:03:59;10.63;;;6.00;;
18596;SDS011;9428;50.950;6.912;2023-07-09T02:06:46;9.95;;;6.32;;
18596;SDS011;9428;50.950;6.912;2023-07-09T02:09:34;12.02;;;6.63;;
18596;SDS011;9428;50.950;6.912;2023-07-09T02:12:22;9.73;;;6.35;;
18596;SDS011;9428;50.950;6.912;2023-07-09T02:15:10;9.15;;;6.15;;
18596;SDS011;9428;50.950;6.912;2023-07-09T02:17:58;11.18;;;6.57;;
18596;SDS011;9428;50.950;6.912;2023-07-09T02:20:47;8.95;;;6.25;;
18596;SDS011;9428;50.950;6.912;2023-07-09T02:23:34;8.93;;;6.00;;
18596;SDS011;9428;50.950;6.912;2023-07-09T02:26:21;11.95;;;6.32;;
18596;SDS011;9428;50.950;6.912;2023-07-09T02:29:10;12.90;;;6.68;;
18596;SDS011;9428;50.950;6.912;2023-07-09T02:31:58;10.85;;;6.43;;
18596;SDS011;9428;50.950;6.912;2023-07-09T02:34:46;9.50;;;5.63;;
18596;SDS011;9428;50.950;6.912;2023-07-09T02:37:34;13.45;;;5.70;;
18596;SDS011;9428;50.950;6.912;2023-07-09T02:40:21;12.32;;;6.00;;
18596;SDS011;9428;50.950;6.912;2023-07-09T02:43:08;10.73;;;6.20;;
18596;SDS011;9428;50.950;6.912;2023-07-09T02:45:57;9.90;;;5.97;;
18596;SDS011;9428;50.950;6.912;2023-07-09T02:48:44;9.43;;;5.70;;
18596;SDS011;9428;50.950;6.912;2023-07-09T02:51:32;10.50;;;5.93;;
18596;SDS011;9428;50.950;6.912;2023-07-09T02:54:19;11.00;;;5.97;;
18596;SDS011;9428;50.950;6.912;2023-07-09T02:57:06;14.27;;;5.13;;
18596;SDS011;9428;50.950;6.912;2023-07-09T02:59:54;8.77;;;5.47;;
18596;SDS011;9428;50.950;6.912;2023-07-09T03:02:42;11.52;;;5.65;;
18596;SDS011;9428;50.950;6.912;2023-07-09T03:05:30;9.68;;;5.38;;
18596;SDS011;9428;50.950;6.912;2023-07-09T03:08:17;8.73;;;5.88;;
18596;SDS011;9428;50.950;6.912;2023-07-09T03:11:10;10.45;;;5.55;;
18596;SDS011;9428;50.950;6.912;2023-07-09T03:13:58;11.82;;;6.18;;
18596;SDS011;9428;50.950;6.912;2023-07-09T03:16:47;10.77;;;5.53;;
18596;SDS011;9428;50.950;6.912;2023-07-09T03:19:35;10.30;;;6.30;;
18596;SDS011;9428;50.950;6.912;2023-07-09T03:22:22;9.40;;;6.03;;
18596;SDS011;9428;50.950;6.912;2023-07-09T03:25:10;10.35;;;5.35;;
18596;SDS011;9428;50.950;6.912;2023-07-09T03:27:57;8.35;;;5.55;;
18596;SDS011;9428;50.950;6.912;2023-07-09T03:30:45;8.43;;;5.38;;
18596;SDS011;9428;50.950;6.912;2023-07-09T03:33:33;7.53;;;5.38;;
18596;SDS011;9428;50.950;6.912;2023-07-09T03:36:22;10.07;;;6.10;;
18596;SDS011;9428;50.950;6.912;2023-07-09T03:39:09;8.15;;;5.50;;
18596;SDS011;9428;50.950;6.912;2023-07-09T03:41:57;11.60;;;5.55;;
18596;SDS011;9428;50.950;6.912;2023-07-09T03:44:45;12.77;;;6.20;;
18596;SDS011;9428;50.950;6.912;2023-07-09T03:47:33;12.35;;;5.90;;
18596;SDS011;9428;50.950;6.912;2023-07-09T03:50:20;11.10;;;6.15;;
18596;SDS011;9428;50.950;6.912;2023-07-09T03:53:08;8.25;;;4.93;;
18596;SDS011;9428;50.950;6.912;2023-07-09T03:55:56;7.95;;;5.93;;
18596;SDS011;9428;50.950;6.912;2023-07-09T03:58:48;10.65;;;5.60;;
18596;SDS011;9428;50.950;6.912;2023-07-09T04:01:35;10.10;;;5.63;;
18596;SDS011;9428;50.950;6.912;2023-07-09T04:04:23;10.70;;;5.85;;
18596;SDS011;9428;50.950;6.912;2023-07-09T04:07:10;8.30;;;5.25;;
18596;SDS011;9428;50.950;6.912;2023-07-09T04:09:59;8.88;;;5.60;;
18596;SDS011;9428;50.950;6.912;2023-07-09T04:12:46;8.25;;;5.53;;
18596;SDS011;9428;50.950;6.912;2023-07-09T04:15:34;11.02;;;6.25;;
18596;SDS011;9428;50.950;6.912;2023-07-09T04:18:21;8.40;;;5.30;;
18596;SDS011;9428;50.950;6.912;2023-07-09T04:21:08;8.13;;;5.03;;
18596;SDS011;9428;50.950;6.912;2023-07-09T04:23:55;7.68;;;5.65;;
18596;SDS011;9428;50.950;6.912;2023-07-09T04:26:44;9.32;;;5.70;;
18596;SDS011;9428;50.950;6.912;2023-07-09T04:29:32;7.45;;;4.72;;
18596;SDS011;9428;50.950;6.912;2023-07-09T04:32:20;10.02;;;5.03;;
18596;SDS011;9428;50.950;6.912;2023-07-09T04:35:08;8.85;;;5.57;;
18596;SDS011;9428;50.950;6.912;2023-07-09T04:37:56;14.13;;;5.82;;
18596;SDS011;9428;50.950;6.912;2023-07-09T04:40:43;9.07;;;4.65;;
18596;SDS011;9428;50.950;6.912;2023-07-09T04:43:32;9.07;;;5.13;;
18596;SDS011;9428;50.950;6.912;2023-07-09T04:46:19;7.10;;;5.15;;
18596;SDS011;9428;50.950;6.912;2023-07-09T04:49:07;9.13;;;4.97;;
18596;SDS011;9428;50.950;6.912;2023-07-09T04:51:57;8.35;;;5.00;;
18596;SDS011;9428;50.950;6.912;2023-07-09T04:54:45;10.25;;;5.82;;
18596;SDS011;9428;50.950;6.912;2023-07-09T04:57:32;8.20;;;4.82;;
18596;SDS011;9428;50.950;6.912;2023-07-09T05:00:20;7.93;;;4.75;;
18596;SDS011;9428;50.950;6.912;2023-07-09T05:03:08;7.97;;;5.32;;
18596;SDS011;9428;50.950;6.912;2023-07-09T05:05:55;9.90;;;5.90;;
18596;SDS011;9428;50.950;6.912;2023-07-09T05:08:43;7.43;;;4.55;;
18596;SDS011;9428;50.950;6.912;2023-07-09T05:11:30;11.32;;;4.45;;
18596;SDS011;9428;50.950;6.912;2023-07-09T05:14:18;8.52;;;5.22;;
18596;SDS011;9428;50.950;6.912;2023-07-09T05:17:07;11.60;;;5.53;;
18596;SDS011;9428;50.950;6.912;2023-07-09T05:19:55;7.93;;;5.25;;
18596;SDS011;9428;50.950;6.912;2023-07-09T05:22:42;7.15;;;5.05;;
18596;SDS011;9428;50.950;6.912;2023-07-09T05:25:29;13.25;;;4.95;;
18596;SDS011;9428;50.950;6.912;2023-07-09T05:28:17;7.53;;;4.90;;
18596;SDS011;9428;50.950;6.912;2023-07-09T05:31:04;8.93;;;4.60;;
18596;SDS011;9428;50.950;6.912;2023-07-09T05:33:54;8.77;;;4.90;;
18596;SDS011;9428;50.950;6.912;2023-07-09T05:36:41;7.07;;;4.78;;
18596;SDS011;9428;50.950;6.912;2023-07-09T05:39:30;6.78;;;5.00;;
18596;SDS011;9428;50.950;6.912;2023-07-09T05:42:17;7.13;;;4.20;;
18596;SDS011;9428;50.950;6.912;2023-07-09T05:45:04;9.02;;;4.68;;
18596;SDS011;9428;50.950;6.912;2023-07-09T05:47:53;7.68;;;4.60;;
18596;SDS011;9428;50.950;6.912;2023-07-09T05:50:41;7.10;;;4.50;;
18596;SDS011;9428;50.950;6.912;2023-07-09T05:53:29;12.60;;;5.05;;
18596;SDS011;9428;50.950;6.912;2023-07-09T05:56:17;6.07;;;4.53;;
18596;SDS011;9428;50.950;6.912;2023-07-09T05:59:04;10.45;;;4.93;;
18596;SDS011;9428;50.950;6.912;2023-07-09T06:01:52;6.88;;;4.50;;
18596;SDS011;9428;50.950;6.912;2023-07-09T06:04:39;9.07;;;4.40;;
18596;SDS011;9428;50.950;6.912;2023-07-09T06:07:28;5.97;;;4.20;;
18596;SDS011;9428;50.950;6.912;2023-07-09T06:10:16;7.82;;;4.80;;
18596;SDS011;9428;50.950;6.912;2023-07-09T06:13:03;8.25;;;5.47;;
18596;SDS011;9428;50.950;6.912;2023-07-09T06:15:51;7.65;;;4.90;;
18596;SDS011;9428;50.950;6.912;2023-07-09T06:18:39;7.10;;;4.57;;
18596;SDS011;9428;50.950;6.912;2023-07-09T06:21:27;10.30;;;5.07;;
18596;SDS011;9428;50.950;6.912;2023-07-09T06:24:16;6.95;;;4.65;;
18596;SDS011;9428;50.950;6.912;2023-07-09T06:27:03;7.40;;;4.88;;
18596;SDS011;9428;50.950;6.912;2023-07-09T06:29:51;9.27;;;5.18;;
18596;SDS011;9428;50.950;6.912;2023-07-09T06:32:38;8.13;;;4.15;;
18596;SDS011;9428;50.950;6.912;2023-07-09T06:35:25;8.18;;;4.85;;
18596;SDS011;9428;50.950;6.912;2023-07-09T06:38:13;7.68;;;4.90;;
18596;SDS011;9428;50.950;6.912;2023-07-09T06:41:01;7.68;;;4.60;;
18596;SDS011;9428;50.950;6.912;2023-07-09T06:43:48;8.65;;;5.28;;
18596;SDS011;9428;50.950;6.912;2023-07-09T06:46:36;8.70;;;4.80;;
18596;SDS011;9428;50.950;6.912;2023-07-09T06:49:23;7.35;;;4.60;;
18596;SDS011;9428;50.950;6.912;2023-07-09T06:52:10;13.27;;;4.63;;
18596;SDS011;9428;50.950;6.912;2023-07-09T06:54:57;8.27;;;4.60;;
18596;SDS011;9428;50.950;6.912;2023-07-09T06:57:46;14.07;;;5.50;;
18596;SDS011;9428;50.950;6.912;2023-07-09T07:00:34;7.50;;;4.93;;
18596;SDS011;9428;50.950;6.912;2023-07-09T07:03:22;7.88;;;4.95;;
18596;SDS011;9428;50.950;6.912;2023-07-09T07:06:09;6.35;;;4.55;;
18596;SDS011;9428;50.950;6.912;2023-07-09T07:08:57;10.30;;;5.10;;
18596;SDS011;9428;50.950;6.912;2023-07-09T07:11:44;12.63;;;4.70;;
18596;SDS011;9428;50.950;6.912;2023-07-09T07:14:33;7.07;;;4.53;;
18596;SDS011;9428;50.950;6.912;2023-07-09T07:17:20;10.63;;;4.30;;
18596;SDS011;9428;50.950;6.912;2023-07-09T07:20:09;9.43;;;5.07;;
18596;SDS011;9428;50.950;6.912;2023-07-09T07:22:57;7.13;;;4.10;;
18596;SDS011;9428;50.950;6.912;2023-07-09T07:25:45;5.65;;;4.40;;
18596;SDS011;9428;50.950;6.912;2023-07-09T07:28:34;5.45;;;3.67;;
18596;SDS011;9428;50.950;6.912;2023-07-09T07:31:23;8.18;;;4.90;;
18596;SDS011;9428;50.950;6.912;2023-07-09T07:34:10;10.23;;;4.50;;
18596;SDS011;9428;50.950;6.912;2023-07-09T07:36:58;9.10;;;4.85;;
18596;SDS011;9428;50.950;6.912;2023-07-09T07:39:45;4.78;;;4.10;;
18596;SDS011;9428;50.950;6.912;2023-07-09T07:42:32;11.90;;;5.10;;
18596;SDS011;9428;50.950;6.912;2023-07-09T07:45:20;5.95;;;4.65;;
18596;SDS011;9428;50.950;6.912;2023-07-09T07:48:09;7.22;;;4.40;;
18596;SDS011;9428;50.950;6.912;2023-07-09T07:50:58;6.18;;;4.15;;
18596;SDS011;9428;50.950;6.912;2023-07-09T07:53:47;6.65;;;4.65;;
18596;SDS011;9428;50.950;6.912;2023-07-09T07:56:35;8.40;;;4.93;;
18596;SDS011;9428;50.950;6.912;2023-07-09T07:59:22;8.48;;;4.85;;
18596;SDS011;9428;50.950;6.912;2023-07-09T08:02:11;14.13;;;5.20;;
18596;SDS011;9428;50.950;6.912;2023-07-09T08:05:00;8.00;;;5.07;;
18596;SDS011;9428;50.950;6.912;2023-07-09T08:07:48;6.50;;;4.18;;
18596;SDS011;9428;50.950;6.912;2023-07-09T08:10:35;5.28;;;3.85;;
18596;SDS011;9428;50.950;6.912;2023-07-09T08:13:23;8.68;;;4.30;;
18596;SDS011;9428;50.950;6.912;2023-07-09T08:16:10;5.93;;;4.50;;
18596;SDS011;9428;50.950;6.912;2023-07-09T08:18:58;7.00;;;4.93;;
18596;SDS011;9428;50.950;6.912;2023-07-09T08:21:46;8.15;;;4.53;;
18596;SDS011;9428;50.950;6.912;2023-07-09T08:24:34;8.43;;;4.47;;
18596;SDS011;9428;50.950;6.912;2023-07-09T08:27:21;7.28;;;4.75;;
18596;SDS011;9428;50.950;6.912;2023-07-09T08:30:09;5.20;;;4.18;;
18596;SDS011;9428;50.950;6.912;2023-07-09T08:32:56;6.05;;;4.78;;
18596;SDS011;9428;50.950;6.912;2023-07-09T08:35:44;8.48;;;4.50;;
18596;SDS011;9428;50.950;6.912;2023-07-09T08:38:32;10.85;;;4.30;;
18596;SDS011;9428;50.950;6.912;2023-07-09T08:41:25;8.95;;;4.68;;
18596;SDS011;9428;50.950;6.912;2023-07-09T08:44:34;6.90;;;4.32;;
18596;SDS011;9428;50.950;6.912;2023-07-09T08:47:33;9.27;;;4.65;;
18596;SDS011;9428;50.950;6.912;2023-07-09T08:50:28;6.95;;;4.70;;
18596;SDS011;9428;50.950;6.912;2023-07-09T08:53:21;6.55;;;5.00;;
18596;SDS011;9428;50.950;6.912;2023-07-09T08:56:17;5.88;;;4.72;;
18596;SDS011;9428;50.950;6.912;2023-07-09T08:59:07;6.22;;;4.43;;
18596;SDS011;9428;50.950;6.912;2023-07-09T09:01:59;9.10;;;5.03;;
18596;SDS011;9428;50.950;6.912;2023-07-09T09:04:50;9.95;;;5.30;;
18596;SDS011;9428;50.950;6.912;2023-07-09T09:07:39;12.48;;;5.15;;
18596;SDS011;9428;50.950;6.912;2023-07-09T09:10:29;6.53;;;4.97;;
18596;SDS011;9428;50.950;6.912;2023-07-09T09:13:27;7.18;;;5.03;;
18596;SDS011;9428;50.950;6.912;2023-07-09T09:16:18;5.95;;;4.53;;
18596;SDS011;9428;50.950;6.912;2023-07-09T09:19:12;8.40;;;4.35;;
18596;SDS011;9428;50.950;6.912;2023-07-09T09:22:05;8.35;;;4.88;;
18596;SDS011;9428;50.950;6.912;2023-07-09T09:24:58;9.10;;;4.68;;
18596;SDS011;9428;50.950;6.912;2023-07-09T09:27:50;6.88;;;4.82;;
18596;SDS011;9428;50.950;6.912;2023-07-09T09:30:38;8.45;;;4.90;;
18596;SDS011;9428;50.950;6.912;2023-07-09T09:33:26;7.93;;;4.68;;
18596;SDS011;9428;50.950;6.912;2023-07-09T09:36:26;8.23;;;4.47;;
18596;SDS011;9428;50.950;6.912;2023-07-09T09:39:14;7.15;;;5.13;;
18596;SDS011;9428;50.950;6.912;2023-07-09T09:42:01;9.60;;;5.07;;
18596;SDS011;9428;50.950;6.912;2023-07-09T09:44:48;7.13;;;4.68;;
18596;SDS011;9428;50.950;6.912;2023-07-09T09:47:37;10.75;;;5.03;;
18596;SDS011;9428;50.950;6.912;2023-07-09T09:50:24;7.43;;;4.90;;
18596;SDS011;9428;50.950;6.912;2023-07-09T09:53:17;6.18;;;4.70;;
18596;SDS011;9428;50.950;6.912;2023-07-09T09:56:09;7.80;;;5.75;;
18596;SDS011;9428;50.950;6.912;2023-07-09T09:59:00;9.68;;;6.13;;
18596;SDS011;9428;50.950;6.912;2023-07-09T10:01:56;10.38;;;6.95;;
18596;SDS011;9428;50.950;6.912;2023-07-09T10:05:04;7.07;;;5.40;;
18596;SDS011;9428;50.950;6.912;2023-07-09T10:07:56;10.23;;;5.13;;
18596;SDS011;9428;50.950;6.912;2023-07-09T10:10:49;8.57;;;5.70;;
18596;SDS011;9428;50.950;6.912;2023-07-09T10:13:39;7.18;;;4.95;;
18596;SDS011;9428;50.950;6.912;2023-07-09T10:16:32;8.73;;;4.90;;
18596;SDS011;9428;50.950;6.912;2023-07-09T10:19:25;7.68;;;5.30;;
18596;SDS011;9428;50.950;6.912;2023-07-09T10:22:32;8.18;;;5.40;;
18596;SDS011;9428;50.950;6.912;2023-07-09T10:25:33;9.73;;;4.85;;
18596;SDS011;9428;50.950;6.912;2023-07-09T10:28:30;9.70;;;6.10;;
18596;SDS011;9428;50.950;6.912;2023-07-09T10:31:29;12.32;;;5.25;;
18596;SDS011;9428;50.950;6.912;2023-07-09T10:34:25;7.47;;;4.85;;
18596;SDS011;9428;50.950;6.912;2023-07-09T10:37:21;8.50;;;5.85;;
18596;SDS011;9428;50.950;6.912;2023-07-09T10:40:30;8.43;;;4.63;;
18596;SDS011;9428;50.950;6.912;2023-07-09T10:43:32;8.35;;;5.07;;
18596;SDS011;9428;50.950;6.912;2023-07-09T10:46:24;6.75;;;4.38;;
18596;SDS011;9428;50.950;6.912;2023-07-09T10:49:14;6.18;;;4.97;;
18596;SDS011;9428;50.950;6.912;2023-07-09T10:52:04;6.60;;;4.68;;
18596;SDS011;9428;50.950;6.912;2023-07-09T10:54:59;6.82;;;4.63;;
18596;SDS011;9428;50.950;6.912;2023-07-09T10:57:52;6.82;;;4.95;;
18596;SDS011;9428;50.950;6.912;2023-07-09T11:00:43;8.25;;;4.82;;
18596;SDS011;9428;50.950;6.912;2023-07-09T11:03:35;9.30;;;4.75;;
18596;SDS011;9428;50.950;6.912;2023-07-09T11:06:30;6.10;;;4.65;;
18596;SDS011;9428;50.950;6.912;2023-07-09T11:09:22;10.27;;;5.45;;
18596;SDS011;9428;50.950;6.912;2023-07-09T11:12:17;6.18;;;4.57;;
18596;SDS011;9428;50.950;6.912;2023-07-09T11:15:09;5.93;;;4.15;;
18596;SDS011;9428;50.950;6.912;2023-07-09T11:17:58;8.07;;;4.50;;
18596;SDS011;9428;50.950;6.912;2023-07-09T11:20:46;7.10;;;4.00;;
18596;SDS011;9428;50.950;6.912;2023-07-09T11:23:38;5.82;;;4.03;;
18596;SDS011;9428;50.950;6.912;2023-07-09T11:26:31;7.38;;;4.32;;
18596;SDS011;9428;50.950;6.912;2023-07-09T11:29:22;8.18;;;4.22;;
18596;SDS011;9428;50.950;6.912;2023-07-09T11:32:10;9.65;;;5.03;;
18596;SDS011;9428;50.950;6.912;2023-07-09T11:35:08;7.13;;;4.18;;
18596;SDS011;9428;50.950;6.912;2023-07-09T11:37:56;8.13;;;4.50;;
18596;SDS011;9428;50.950;6.912;2023-07-09T11:40:55;8.50;;;4.68;;
18596;SDS011;9428;50.950;6.912;2023-07-09T11:43:46;10.68;;;4.53;;
18596;SDS011;9428;50.950;6.912;2023-07-09T11:46:36;5.53;;;4.22;;
18596;SDS011;9428;50.950;6.912;2023-07-09T11:49:35;12.38;;;4.47;;
18596;SDS011;9428;50.950;6.912;2023-07-09T11:52:32;7.10;;;4.55;;
18596;SDS011;9428;50.950;6.912;2023-07-09T11:55:26;6.13;;;4.20;;
18596;SDS011;9428;50.950;6.912;2023-07-09T11:58:18;7.40;;;4.40;;
18596;SDS011;9428;50.950;6.912;2023-07-09T12:01:09;7.72;;;4.45;;
18596;SDS011;9428;50.950;6.912;2023-07-09T12:04:04;8.63;;;4.05;;
18596;SDS011;9428;50.950;6.912;2023-07-09T12:06:53;5.95;;;3.38;;
18596;SDS011;9428;50.950;6.912;2023-07-09T12:09:46;5.60;;;3.22;;
18596;SDS011;9428;50.950;6.912;2023-07-09T12:12:36;7.20;;;4.00;;
18596;SDS011;9428;50.950;6.912;2023-07-09T12:15:28;8.55;;;3.58;;
18596;SDS011;9428;50.950;6.912;2023-07-09T12:18:17;6.57;;;4.10;;
18596;SDS011;9428;50.950;6.912;2023-07-09T12:21:07;5.22;;;3.45;;
18596;SDS011;9428;50.950;6.912;2023-07-09T12:23:55;5.60;;;3.58;;
18596;SDS011;9428;50.950;6.912;2023-07-09T12:26:42;6.93;;;3.50;;
18596;SDS011;9428;50.950;6.912;2023-07-09T12:29:30;9.52;;;4.10;;
18596;SDS011;9428;50.950;6.912;2023-07-09T12:32:22;4.72;;;3.90;;
18596;SDS011;9428;50.950;6.912;2023-07-09T12:35:14;4.55;;;3.65;;
18596;SDS011;9428;50.950;6.912;2023-07-09T12:38:03;5.82;;;3.85;;
18596;SDS011;9428;50.950;6.912;2023-07-09T12:41:16;6.22;;;4.35;;
18596;SDS011;9428;50.950;6.912;2023-07-09T12:44:08;6.15;;;4.10;;
18596;SDS011;9428;50.950;6.912;2023-07-09T12:47:02;7.32;;;3.80;;
18596;SDS011;9428;50.950;6.912;2023-07-09T12:49:50;7.75;;;4.20;;
18596;SDS011;9428;50.950;6.912;2023-07-09T12:52:44;8.50;;;4.50;;
18596;SDS011;9428;50.950;6.912;2023-07-09T12:55:38;5.18;;;3.67;;
18596;SDS011;9428;50.950;6.912;2023-07-09T12:58:28;8.80;;;4.07;;
18596;SDS011;9428;50.950;6.912;2023-07-09T13:01:16;5.93;;;3.80;;
18596;SDS011;9428;50.950;6.912;2023-07-09T13:04:07;5.65;;;3.85;;
18596;SDS011;9428;50.950;6.912;2023-07-09T13:06:58;6.80;;;4.22;;
18596;SDS011;9428;50.950;6.912;2023-07-09T13:09:47;5.88;;;4.03;;
18596;SDS011;9428;50.950;6.912;2023-07-09T13:12:38;7.15;;;4.32;;
18596;SDS011;9428;50.950;6.912;2023-07-09T13:15:27;11.68;;;4.28;;
18596;SDS011;9428;50.950;6.912;2023-07-09T13:18:17;10.90;;;4.53;;
18596;SDS011;9428;50.950;6.912;2023-07-09T13:21:05;6.72;;;4.50;;
18596;SDS011;9428;50.950;6.912;2023-07-09T13:24:04;6.05;;;3.95;;
18596;SDS011;9428;50.950;6.912;2023-07-09T13:27:00;6.13;;;3.67;;
18596;SDS011;9428;50.950;6.912;2023-07-09T13:29:51;7.38;;;4.35;;
18596;SDS011;9428;50.950;6.912;2023-07-09T13:32:38;5.40;;;3.83;;
18596;SDS011;9428;50.950;6.912;2023-07-09T13:35:25;7.78;;;4.00;;
18596;SDS011;9428;50.950;6.912;2023-07-09T13:38:13;5.30;;;3.60;;
18596;SDS011;9428;50.950;6.912;2023-07-09T13:41:09;6.22;;;3.92;;
18596;SDS011;9428;50.950;6.912;2023-07-09T13:43:57;6.55;;;4.30;;
18596;SDS011;9428;50.950;6.912;2023-07-09T13:46:46;6.00;;;4.53;;
18596;SDS011;9428;50.950;6.912;2023-07-09T13:49:34;10.43;;;4.90;;
18596;SDS011;9428;50.950;6.912;2023-07-09T13:52:23;7.68;;;4.25;;
18596;SDS011;9428;50.950;6.912;2023-07-09T13:55:15;6.90;;;4.22;;
18596;SDS011;9428;50.950;6.912;2023-07-09T13:58:04;6.47;;;3.75;;
18596;SDS011;9428;50.950;6.912;2023-07-09T14:00:54;10.43;;;3.88;;
18596;SDS011;9428;50.950;6.912;2023-07-09T14:03:46;9.85;;;4.28;;
18596;SDS011;9428;50.950;6.912;2023-07-09T14:06:33;5.75;;;3.70;;
18596;SDS011;9428;50.950;6.912;2023-07-09T14:09:21;8.40;;;4.03;;
18596;SDS011;9428;50.950;6.912;2023-07-09T14:12:09;7.70;;;4.35;;
18596;SDS011;9428;50.950;6.912;2023-07-09T14:14:57;6.80;;;4.15;;
18596;SDS011;9428;50.950;6.912;2023-07-09T14:17:45;6.38;;;3.55;;
18596;SDS011;9428;50.950;6.912;2023-07-09T14:20:36;4.78;;;3.83;;
18596;SDS011;9428;50.950;6.912;2023-07-09T14:23:24;6.65;;;3.70;;
18596;SDS011;9428;50.950;6.912;2023-07-09T14:26:12;6.05;;;3.50;;
18596;SDS011;9428;50.950;6.912;2023-07-09T14:28:59;4.95;;;3.38;;
18596;SDS011;9428;50.950;6.912;2023-07-09T14:31:46;8.95;;;3.90;;
18596;SDS011;9428;50.950;6.912;2023-07-09T14:34:34;8.98;;;3.10;;
18596;SDS011;9428;50.950;6.912;2023-07-09T14:37:26;25.42;;;4.80;;
18596;SDS011;9428;50.950;6.912;2023-07-09T14:40:14;17.95;;;3.88;;
18596;SDS011;9428;50.950;6.912;2023-07-09T14:43:04;20.48;;;5.25;;
18596;SDS011;9428;50.950;6.912;2023-07-09T14:45:55;20.08;;;5.32;;
18596;SDS011;9428;50.950;6.912;2023-07-09T14:48:42;7.60;;;4.00;;
18596;SDS011;9428;50.950;6.912;2023-07-09T14:51:30;5.97;;;4.50;;
18596;SDS011;9428;50.950;6.912;2023-07-09T14:54:19;7.63;;;4.10;;
18596;SDS011;9428;50.950;6.912;2023-07-09T14:57:08;13.65;;;4.32;;
18596;SDS011;9428;50.950;6.912;2023-07-09T15:00:05;8.95;;;4.32;;
18596;SDS011;9428;50.950;6.912;2023-07-09T15:02:58;13.55;;;5.18;;
18596;SDS011;9428;50.950;6.912;2023-07-09T15:05:45;9.98;;;3.65;;
18596;SDS011;9428;50.950;6.912;2023-07-09T15:08:33;5.95;;;4.05;;
18596;SDS011;9428;50.950;6.912;2023-07-09T15:11:22;6.03;;;3.70;;
18596;SDS011;9428;50.950;6.912;2023-07-09T15:14:09;7.35;;;3.55;;
18596;SDS011;9428;50.950;6.912;2023-07-09T15:16:57;6.22;;;4.07;;
18596;SDS011;9428;50.950;6.912;2023-07-09T15:19:44;8.40;;;3.85;;
18596;SDS011;9428;50.950;6.912;2023-07-09T15:22:33;6.55;;;4.18;;
18596;SDS011;9428;50.950;6.912;2023-07-09T15:25:22;9.35;;;4.43;;
18596;SDS011;9428;50.950;6.912;2023-07-09T15:28:12;9.98;;;4.32;;
18596;SDS011;9428;50.950;6.912;2023-07-09T15:30:59;8.63;;;4.28;;
18596;SDS011;9428;50.950;6.912;2023-07-09T15:33:46;5.43;;;3.55;;
18596;SDS011;9428;50.950;6.912;2023-07-09T15:36:34;7.45;;;4.53;;
18596;SDS011;9428;50.950;6.912;2023-07-09T15:39:21;9.98;;;5.05;;
18596;SDS011;9428;50.950;6.912;2023-07-09T15:42:09;8.20;;;5.07;;
18596;SDS011;9428;50.950;6.912;2023-07-09T15:44:58;10.70;;;5.85;;
18596;SDS011;9428;50.950;6.912;2023-07-09T15:47:46;10.57;;;6.40;;
18596;SDS011;9428;50.950;6.912;2023-07-09T15:50:34;9.27;;;7.03;;
18596;SDS011;9428;50.950;6.912;2023-07-09T15:53:23;12.02;;;6.28;;
18596;SDS011;9428;50.950;6.912;2023-07-09T15:56:12;8.95;;;5.25;;
18596;SDS011;9428;50.950;6.912;2023-07-09T15:59:04;6.55;;;4.97;;
18596;SDS011;9428;50.950;6.912;2023-07-09T16:01:55;9.95;;;5.38;;
18596;SDS011;9428;50.950;6.912;2023-07-09T16:04:43;11.25;;;5.78;;
18596;SDS011;9428;50.950;6.912;2023-07-09T16:07:30;10.57;;;5.45;;
18596;SDS011;9428;50.950;6.912;2023-07-09T16:10:18;8.93;;;5.15;;
18596;SDS011;9428;50.950;6.912;2023-07-09T16:13:09;12.90;;;4.78;;
18596;SDS011;9428;50.950;6.912;2023-07-09T16:16:03;7.13;;;4.55;;
18596;SDS011;9428;50.950;6.912;2023-07-09T16:18:52;5.78;;;4.30;;
18596;SDS011;9428;50.950;6.912;2023-07-09T16:21:40;7.65;;;4.60;;
18596;SDS011;9428;50.950;6.912;2023-07-09T16:24:28;6.72;;;4.47;;
18596;SDS011;9428;50.950;6.912;2023-07-09T16:27:16;6.90;;;4.00;;
18596;SDS011;9428;50.950;6.912;2023-07-09T16:30:08;7.13;;;4.47;;
18596;SDS011;9428;50.950;6.912;2023-07-09T16:32:59;6.93;;;4.68;;
18596;SDS011;9428;50.950;6.912;2023-07-09T16:35:49;6.80;;;4.57;;
18596;SDS011;9428;50.950;6.912;2023-07-09T16:38:39;7.20;;;4.10;;
18596;SDS011;9428;50.950;6.912;2023-07-09T16:41:26;7.38;;;4.03;;
18596;SDS011;9428;50.950;6.912;2023-07-09T16:44:14;9.80;;;4.05;;
18596;SDS011;9428;50.950;6.912;2023-07-09T16:47:01;7.97;;;3.80;;
18596;SDS011;9428;50.950;6.912;2023-07-09T16:49:57;5.45;;;3.83;;
18596;SDS011;9428;50.950;6.912;2023-07-09T16:52:46;5.80;;;3.83;;
18596;SDS011;9428;50.950;6.912;2023-07-09T16:55:34;7.85;;;4.05;;
18596;SDS011;9428;50.950;6.912;2023-07-09T16:58:25;6.15;;;4.22;;
18596;SDS011;9428;50.950;6.912;2023-07-09T17:01:16;5.03;;;3.47;;
18596;SDS011;9428;50.950;6.912;2023-07-09T17:04:07;5.82;;;3.90;;
18596;SDS011;9428;50.950;6.912;2023-07-09T17:07:05;5.63;;;3.83;;
18596;SDS011;9428;50.950;6.912;2023-07-09T17:09:54;5.30;;;3.65;;
18596;SDS011;9428;50.950;6.912;2023-07-09T17:12:43;5.63;;;3.80;;
18596;SDS011;9428;50.950;6.912;2023-07-09T17:15:32;7.30;;;3.70;;